Time;durP1;ratioP1;P1;durP2;ratioP2;P2;SDS_P1;SDS_P2;PMS_P1;PMS_P2;Temp;Humidity;BMP_temperature;BMP_pressure;BME280_temperature;BME280_humidity;BME280_pressure;Samples;Min_cycle;Max_cycle;Signal;HPM_P1;HPM_P2
2024/02/15 00:00:15;;;;;;;4.25;1.80;;;;;;;11.87;100.00;99214.44;4981870;28;20048;-95
2024/02/15 00:02:44;;;;;;;2.67;1.25;;;;;;;11.86;100.00;99205.69;4969215;28;20378;-95
2024/02/15 00:05:11;;;;;;;1.92;1.38;;;;;;;11.89;100.00;99215.09;4956722;28;20052;-96
2024/02/15 00:07:38;;;;;;;2.75;1.27;;;;;;;11.91;100.00;99207.78;4950761;28;20173;-96
2024/02/15 00:10:05;;;;;;;2.15;1.17;;;;;;;11.89;100.00;99207.13;4974734;28;20030;-95
2024/02/15 00:12:31;;;;;;;3.65;1.45;;;;;;;11.94;100.00;99214.53;4950583;28;20050;-96
2024/02/15 00:14:58;;;;;;;4.03;1.38;;;;;;;11.93;100.00;99208.41;4938214;28;20038;-96
2024/02/15 00:17:30;;;;;;;3.15;1.30;;;;;;;11.99;100.00;99210.31;4992256;28;20034;-96
2024/02/15 00:19:56;;;;;;;1.08;0.98;;;;;;;11.93;100.00;99208.41;4984189;28;20485;-95
2024/02/15 00:22:22;;;;;;;2.53;1.00;;;;;;;11.95;100.00;99216.16;4964726;28;20097;-95
2024/02/15 00:24:50;;;;;;;3.22;1.10;;;;;;;11.96;100.00;99221.28;4942053;28;20510;-96
2024/02/15 00:27:22;;;;;;;3.95;1.25;;;;;;;11.99;100.00;99225.41;4989264;28;20104;-96
2024/02/15 00:29:50;;;;;;;2.47;1.63;;;;;;;11.94;100.00;99225.94;4957370;28;20038;-96
2024/02/15 00:32:16;;;;;;;4.47;2.78;;;;;;;11.98;100.00;99221.91;4959174;28;20133;-95
2024/02/15 00:34:48;;;;;;;2.33;1.30;;;;;;;12.00;100.00;99217.28;4958096;28;20037;-96
2024/02/15 00:37:13;;;;;;;3.25;1.52;;;;;;;12.01;100.00;99223.38;4954630;28;20034;-95
2024/02/15 00:39:57;;;;;;;5.50;1.30;;;;;;;12.08;100.00;99226.97;4945666;28;20118;-96
2024/02/15 00:42:23;;;;;;;1.73;1.00;;;;;;;12.00;100.00;99224.38;4965619;28;20065;-96
2024/02/15 00:44:52;;;;;;;2.42;1.17;;;;;;;12.02;100.00;99219.72;4991161;28;20071;-96
2024/02/15 00:47:19;;;;;;;1.52;0.75;;;;;;;12.00;100.00;99224.38;4973364;28;20038;-96
2024/02/15 00:50:05;;;;;;;1.55;1.08;;;;;;;12.08;100.00;99226.13;4945965;28;20396;-96
2024/02/15 00:52:57;;;;;;;4.20;1.20;;;;;;;12.07;100.00;99227.94;4947537;28;20039;-96
2024/02/15 00:55:25;;;;;;;5.07;1.33;;;;;;;12.03;100.00;99230.16;4933584;28;20039;-96
2024/02/15 00:57:52;;;;;;;1.88;1.08;;;;;;;12.06;100.00;99234.25;4943343;28;20081;-96
2024/02/15 01:00:22;;;;;;;2.65;1.45;;;;;;;12.06;100.00;99230.75;4950584;28;20038;-96
2024/02/15 01:02:49;;;;;;;1.63;0.98;;;;;;;12.00;100.00;99221.75;4947832;28;20031;-96
2024/02/15 01:05:25;;;;;;;4.57;1.42;;;;;;;12.09;100.00;99223.31;4952917;28;20037;-96
2024/02/15 01:07:55;;;;;;;;;;;;;;;12.03;100.00;99210.78;4965318;28;20035;-96
2024/02/15 01:10:23;;;;;;;5.03;1.35;;;;;;;12.03;100.00;99219.56;4929096;28;19921;-96
2024/02/15 01:12:49;;;;;;;2.55;1.13;;;;;;;12.01;100.00;99224.19;4923737;28;20357;-96
2024/02/15 01:15:19;;;;;;;2.10;1.40;;;;;;;12.01;100.00;99216.25;4961548;28;20081;-95
2024/02/15 01:17:46;;;;;;;5.55;1.20;;;;;;;12.01;100.00;99208.31;4947955;28;20129;-96
2024/02/15 01:20:11;;;;;;;2.92;1.00;;;;;;;11.99;100.00;99217.47;4932132;28;20039;-95
2024/02/15 01:22:38;;;;;;;2.63;1.00;;;;;;;12.01;100.00;99213.59;4965701;28;20077;-96
2024/02/15 01:25:04;;;;;;;2.65;1.00;;;;;;;11.99;100.00;99207.66;4944869;28;20093;-96
2024/02/15 01:27:30;;;;;;;5.60;1.30;;;;;;;12.00;100.00;99200.56;4930447;28;20042;-96
2024/02/15 01:29:59;;;;;;;2.97;1.00;;;;;;;12.00;100.00;99195.25;4972700;28;20039;-96
2024/02/15 01:32:25;;;;;;;8.13;1.58;;;;;;;11.98;100.00;99192.78;4963491;28;20042;-93
2024/02/15 01:34:53;;;;;;;2.35;0.98;;;;;;;11.95;100.00;99190.50;4950014;28;20082;-93
2024/02/15 01:37:23;;;;;;;3.22;0.90;;;;;;;11.95;100.00;99185.22;4961933;28;20066;-96
2024/02/15 01:39:50;;;;;;;5.93;1.10;;;;;;;11.94;100.00;99194.19;4939992;29;20042;-96
2024/02/15 01:42:15;;;;;;;3.65;1.20;;;;;;;11.93;100.00;99195.16;4960300;28;20034;-95
2024/02/15 01:44:43;;;;;;;6.10;1.10;;;;;;;11.91;100.00;99178.66;4939884;28;20391;-95
2024/02/15 01:47:10;;;;;;;3.05;1.20;;;;;;;11.91;100.00;99176.81;4930510;28;20042;-95
2024/02/15 01:49:37;;;;;;;3.97;1.00;;;;;;;11.90;100.00;99169.88;4942955;28;20042;-96
2024/02/15 01:52:08;;;;;;;6.93;1.27;;;;;;;11.94;100.00;99166.88;4938696;28;20041;-96
2024/02/15 01:54:35;;;;;;;8.75;1.20;;;;;;;11.88;100.00;99158.66;4928820;28;20078;-96
2024/02/15 01:57:03;;;;;;;6.38;1.17;;;;;;;11.87;100.00;99162.31;4950757;28;20037;-96
2024/02/15 01:59:30;;;;;;;5.70;1.25;;;;;;;11.84;100.00;99159.19;4926670;28;20137;-96
2024/02/15 02:01:56;;;;;;;4.38;1.05;;;;;;;11.82;100.00;99155.94;4943745;28;20038;-95
2024/02/15 02:04:22;;;;;;;6.72;0.88;;;;;;;11.84;100.00;99165.34;4945945;28;20053;-96
2024/02/15 02:06:48;;;;;;;5.70;0.90;;;;;;;11.83;100.00;99160.22;4945186;28;20299;-95
2024/02/15 02:09:15;;;;;;;4.28;1.40;;;;;;;11.82;100.00;99148.78;4945492;28;20486;-96
2024/02/15 02:11:46;;;;;;;4.03;0.80;;;;;;;11.84;100.00;99152.09;4948251;28;20059;-96
2024/02/15 02:14:12;;;;;;;5.45;1.05;;;;;;;11.78;100.00;99156.28;4944182;28;20046;-96
2024/02/15 02:16:41;;;;;;;1.90;0.68;;;;;;;11.75;100.00;99158.50;4944223;28;20038;-96
2024/02/15 02:19:08;;;;;;;2.55;1.20;;;;;;;11.75;100.00;99145.25;4951031;29;20053;-96
2024/02/15 02:21:35;;;;;;;3.30;0.60;;;;;;;11.78;100.00;99136.94;4947445;28;20066;-87
2024/02/15 02:24:13;;;;;;;4.88;1.10;;;;;;;11.82;100.00;99148.78;4943556;28;20117;-96
2024/02/15 02:26:46;;;;;;;2.80;0.88;;;;;;;11.75;100.00;99145.25;4927001;28;20039;-94
2024/02/15 02:29:14;;;;;;;4.97;0.85;;;;;;;11.80;100.00;99142.88;4958001;28;20042;-94
2024/02/15 02:31:42;;;;;;;3.28;0.88;;;;;;;11.71;100.00;99128.09;4953496;28;20070;-96
2024/02/15 02:34:08;;;;;;;2.13;0.70;;;;;;;11.78;100.00;99132.44;4944275;28;20519;-96
2024/02/15 02:36:34;;;;;;;5.35;0.80;;;;;;;11.75;100.00;99126.72;4945759;28;20035;-96
2024/02/15 02:39:07;;;;;;;4.45;0.50;;;;;;;11.79;100.00;99120.88;4961257;28;20038;-96
2024/02/15 02:41:41;;;;;;;2.50;0.60;;;;;;;11.77;100.00;99108.81;4922003;28;20185;-96
2024/02/15 02:44:19;;;;;;;1.40;0.52;;;;;;;11.78;100.00;99105.97;4952445;28;20050;-96
2024/02/15 02:46:46;;;;;;;1.63;0.50;;;;;;;11.71;100.00;99099.81;4954630;28;20038;-96
2024/02/15 02:50:13;;;;;;;;;;;;;;;;;;;;;
2024/02/15 02:53:47;;;;;;;2.63;0.47;;;;;;;11.72;100.00;99085.56;4992845;28;20048;-96
2024/02/15 02:56:37;;;;;;;2.60;0.30;;;;;;;11.69;100.00;99077.19;4984140;28;20096;-96
2024/02/15 02:59:33;;;;;;;0.85;0.20;;;;;;;11.72;100.00;99071.50;4975913;28;20057;-96
2024/02/15 03:03:55;;;;;;;;;;;;;;;;;;;;;
2024/02/15 03:06:26;;;;;;;3.53;0.50;;;;;;;11.69;100.00;99059.44;4964265;28;20121;-96
2024/02/15 03:14:04;;;;;;;4.15;1.00;;;;;;;11.66;100.00;99044.78;4913846;29;20067;-96
2024/02/15 03:19:58;;;;;;;2.75;1.00;;;;;;;11.63;100.00;99042.50;4886331;29;20041;-96
2024/02/15 03:22:26;;;;;;;1.02;0.90;;;;;;;11.59;100.00;99030.66;4885452;29;20044;-95
2024/02/15 03:24:52;;;;;;;1.20;0.88;;;;;;;11.54;100.00;99033.03;4859602;29;20042;-96
2024/02/15 03:27:18;;;;;;;0.93;0.80;;;;;;;11.57;100.00;99037.94;4883135;29;20086;-96
2024/02/15 03:29:43;;;;;;;1.00;0.57;;;;;;;11.56;100.00;99033.69;4905797;29;20450;-96
2024/02/15 03:32:10;;;;;;;0.55;0.55;;;;;;;11.47;100.00;99025.00;4905846;29;20501;-96
2024/02/15 03:34:39;;;;;;;0.75;0.50;;;;;;;11.49;100.00;99022.19;4907846;29;20092;-96
2024/02/15 03:38:03;;;;;;;0.60;0.60;;;;;;;11.58;100.00;99033.50;4902777;29;20047;-96
2024/02/15 03:44:23;;;;;;;;;;;;;;;;;;;;;
2024/02/15 03:47:42;;;;;;;1.15;0.90;;;;;;;11.47;100.00;99016.25;4982131;28;20345;-96
2024/02/15 03:50:14;;;;;;;1.75;1.00;;;;;;;11.43;100.00;99021.09;4962224;28;20053;-96
2024/02/15 03:52:40;;;;;;;1.05;0.88;;;;;;;11.46;100.00;99026.03;4965987;28;20034;-96
2024/02/15 03:55:07;;;;;;;1.45;1.00;;;;;;;11.46;100.00;99020.72;4983149;28;20049;-96
2024/02/15 03:57:34;;;;;;;1.90;1.05;;;;;;;11.48;100.00;99009.97;4952642;28;20528;-96
2024/02/15 04:00:03;;;;;;;0.80;0.80;;;;;;;11.39;100.00;98993.38;4960458;28;20503;-96
2024/02/15 04:02:35;;;;;;;1.02;0.90;;;;;;;11.44;100.00;98993.63;4968577;28;20104;-96
2024/02/15 04:05:04;;;;;;;2.75;0.77;;;;;;;11.41;100.00;98994.84;4959385;28;20046;-96
2024/02/15 04:07:30;;;;;;;0.88;0.50;;;;;;;11.44;100.00;98995.44;4949592;28;20501;-96
2024/02/15 04:09:56;;;;;;;1.38;0.57;;;;;;;11.31;100.00;98978.41;4965594;28;20033;-96
2024/02/15 04:12:27;;;;;;;0.80;0.38;;;;;;;11.42;100.00;98982.41;4979235;28;20050;-96
2024/02/15 04:15:07;;;;;;;0.40;0.40;;;;;;;11.36;100.00;98985.78;4954676;28;20085;-96
2024/02/15 04:17:35;;;;;;;0.82;0.47;;;;;;;11.38;100.00;98984.63;4960495;28;20034;-96
2024/02/15 04:20:04;;;;;;;1.10;0.40;;;;;;;11.32;100.00;98980.09;4972484;28;20106;-96
2024/02/15 04:22:36;;;;;;;1.25;0.40;;;;;;;11.30;100.00;98976.78;4960315;28;20038;-96
2024/02/15 04:25:07;;;;;;;2.78;0.43;;;;;;;11.39;100.00;98962.44;4952737;28;20041;-96
2024/02/15 04:27:33;;;;;;;2.53;0.40;;;;;;;11.27;100.00;98959.47;4971280;28;20128;-96
2024/02/15 04:29:59;;;;;;;4.45;0.35;;;;;;;11.27;100.00;98954.19;4952094;28;20038;-96
2024/02/15 04:32:25;;;;;;;0.52;0.40;;;;;;;11.27;100.00;98964.78;4962904;28;20096;-96
2024/02/15 04:34:52;;;;;;;0.35;0.30;;;;;;;11.27;100.00;98962.13;4951589;28;20180;-96
2024/02/15 04:37:18;;;;;;;1.42;0.30;;;;;;;11.21;100.00;98960.19;4962940;28;20072;-96
2024/02/15 04:39:44;;;;;;;0.80;0.17;;;;;;;11.24;100.00;98956.38;4955169;28;20049;-96
2024/02/15 04:42:13;;;;;;;0.57;0.20;;;;;;;11.27;100.00;98962.13;4954247;28;20034;-96
2024/02/15 04:44:39;;;;;;;0.65;0.20;;;;;;;11.21;100.00;98949.63;4970815;28;20051;-96
2024/02/15 04:47:05;;;;;;;0.30;0.10;;;;;;;11.24;100.00;98959.03;4962761;28;20275;-96
2024/02/15 04:49:37;;;;;;;0.85;0.13;;;;;;;11.22;100.00;98950.44;4959070;28;20043;-96
2024/02/15 04:52:04;;;;;;;1.05;0.08;;;;;;;11.23;100.00;98944.97;4962503;28;20047;-96
2024/02/15 04:54:32;;;;;;;0.10;0.00;;;;;;;11.21;100.00;98960.19;4965828;28;20034;-96
2024/02/15 04:56:58;;;;;;;0.32;0.10;;;;;;;11.15;100.00;98953.84;4949026;28;20053;-96
2024/02/15 04:59:26;;;;;;;2.00;0.10;;;;;;;11.18;100.00;98957.91;4971890;28;20032;-96
2024/02/15 05:01:52;;;;;;;0.00;0.00;;;;;;;11.21;100.00;98952.25;4979706;28;20128;-96
2024/02/15 05:04:18;;;;;;;0.90;0.45;;;;;;;11.15;100.00;98942.41;4961450;28;20053;-96
2024/02/15 05:06:45;;;;;;;0.15;0.10;;;;;;;11.15;100.00;98937.13;4958081;28;20038;-96
2024/02/15 05:09:11;;;;;;;0.65;0.25;;;;;;;11.18;100.00;98933.31;4986610;28;20040;-96
2024/02/15 05:11:41;;;;;;;1.02;0.10;;;;;;;11.21;100.00;98936.38;4959965;28;20050;-96
2024/02/15 05:14:07;;;;;;;0.30;0.05;;;;;;;11.21;100.00;98940.88;4949369;28;20481;-96
2024/02/15 05:16:34;;;;;;;0.20;0.20;;;;;;;11.23;100.00;98938.84;4983996;28;20046;-96
2024/02/15 05:19:00;;;;;;;0.10;0.10;;;;;;;11.16;100.00;98930.84;4984484;28;20088;-96
2024/02/15 05:21:26;;;;;;;0.63;0.10;;;;;;;11.20;100.00;98937.41;4963599;28;20035;-96
2024/02/15 05:23:53;;;;;;;0.30;0.00;;;;;;;11.19;100.00;98935.78;4968548;28;20059;-96
2024/02/15 05:26:23;;;;;;;1.98;0.08;;;;;;;11.18;100.00;98933.31;4965972;28;20054;-96
2024/02/15 05:28:52;;;;;;;0.00;0.00;;;;;;;11.16;100.00;98934.31;4971453;28;20038;-96
2024/02/15 05:31:20;;;;;;;0.28;0.10;;;;;;;11.16;100.00;98925.56;4944147;28;20041;-96
2024/02/15 05:33:50;;;;;;;0.00;0.00;;;;;;;11.17;100.00;98924.56;4984371;28;20052;-96
2024/02/15 05:36:20;;;;;;;0.75;0.00;;;;;;;11.16;100.00;98930.84;4978184;28;20041;-96
2024/02/15 05:38:48;;;;;;;0.65;0.00;;;;;;;11.18;100.00;98935.97;4983450;28;20040;-96
2024/02/15 05:41:14;;;;;;;2.30;0.10;;;;;;;11.12;100.00;98929.56;4984553;28;20085;-96
2024/02/15 05:43:43;;;;;;;0.00;0.00;;;;;;;11.11;100.00;98928.78;4954937;28;20129;-96
2024/02/15 05:46:10;;;;;;;0.13;0.00;;;;;;;11.10;100.00;98927.13;4974695;28;20094;-96
2024/02/15 05:48:37;;;;;;;0.00;0.00;;;;;;;11.13;100.00;98933.88;4968966;28;20038;-96
2024/02/15 05:51:04;;;;;;;0.63;0.10;;;;;;;11.15;100.00;98926.56;4967686;28;20065;-96
2024/02/15 05:53:32;;;;;;;0.10;0.00;;;;;;;11.09;100.00;98922.00;4987640;28;20087;-96
2024/02/15 05:56:04;;;;;;;0.75;0.00;;;;;;;11.11;100.00;98922.66;4967474;28;20040;-96
2024/02/15 05:58:43;;;;;;;0.10;0.10;;;;;;;11.20;100.00;98926.00;4964288;28;20047;-96
2024/02/15 06:01:25;;;;;;;0.00;0.00;;;;;;;11.17;100.00;98913.97;4964512;28;20492;-96
2024/02/15 06:04:08;;;;;;;0.00;0.00;;;;;;;11.09;100.00;98908.78;4967127;28;20037;-96
2024/02/15 06:06:58;;;;;;;0.00;0.00;;;;;;;11.14;100.00;98903.78;4973353;28;20056;-96
2024/02/15 06:09:26;;;;;;;0.10;0.10;;;;;;;11.13;100.00;98904.78;4959680;28;20485;-96
2024/02/15 06:11:55;;;;;;;0.00;0.00;;;;;;;11.16;100.00;98909.72;4987089;28;20467;-96
2024/02/15 06:14:21;;;;;;;0.10;0.10;;;;;;;11.13;100.00;98899.50;4967839;28;20034;-96
2024/02/15 06:16:48;;;;;;;0.10;0.10;;;;;;;11.14;100.00;98901.97;4964653;28;20033;-96
2024/02/15 06:19:14;;;;;;;0.00;0.00;;;;;;;11.15;100.00;98908.03;4966484;28;20034;-96
2024/02/15 06:21:40;;;;;;;0.10;0.00;;;;;;;11.18;100.00;98910.31;4957725;28;20038;-96
2024/02/15 06:24:21;;;;;;;0.00;0.00;;;;;;;11.24;100.00;98904.31;4976904;28;20042;-96
2024/02/15 06:26:59;;;;;;;2.05;0.08;;;;;;;11.18;100.00;98889.16;4973233;28;20104;-96
2024/02/15 06:41:11;;;;;;;0.30;0.05;;;;;;;11.17;100.00;98887.53;5006524;28;20089;-96
2024/02/15 06:43:40;;;;;;;0.43;0.00;;;;;;;11.18;100.00;98883.06;4974946;28;20044;-96
2024/02/15 06:46:10;;;;;;;0.00;0.00;;;;;;;11.22;100.00;98889.63;4955199;28;20073;-96
2024/02/15 06:48:37;;;;;;;0.10;0.00;;;;;;;11.20;100.00;98900.38;4969434;28;20134;-96
2024/02/15 06:51:03;;;;;;;0.20;0.10;;;;;;;11.19;100.00;98890.81;4976233;28;20101;-96
2024/02/15 06:53:30;;;;;;;0.10;0.10;;;;;;;11.17;100.00;98890.19;4957613;28;20030;-96
2024/02/15 06:55:56;;;;;;;0.30;0.10;;;;;;;11.21;100.00;98893.28;4955109;28;20369;-96
2024/02/15 06:58:22;;;;;;;2.55;0.10;;;;;;;11.21;100.00;98888.00;4951670;28;20111;-96
2024/02/15 07:00:50;;;;;;;0.10;0.10;;;;;;;11.21;100.00;98888.78;4942710;28;20117;-96
2024/02/15 07:03:16;;;;;;;0.43;0.17;;;;;;;11.20;100.00;98881.03;4979852;28;20049;-96
2024/02/15 07:05:43;;;;;;;0.75;0.10;;;;;;;11.24;100.00;98884.97;4940789;28;20405;-96
2024/02/15 07:08:15;;;;;;;0.00;0.00;;;;;;;11.23;100.00;98876.19;4940628;28;20592;-96
2024/02/15 07:10:41;;;;;;;0.90;0.20;;;;;;;11.25;100.00;98874.19;4960743;28;20324;-96
2024/02/15 07:13:07;;;;;;;0.10;0.10;;;;;;;11.26;100.00;98881.13;4961188;28;20092;-96
2024/02/15 07:15:38;;;;;;;0.10;0.10;;;;;;;11.28;100.00;98870.34;4974628;28;20027;-95
2024/02/15 07:18:06;;;;;;;1.85;0.10;;;;;;;11.30;100.00;98878.94;4943780;28;20627;-96
2024/02/15 07:20:33;;;;;;;0.52;0.10;;;;;;;11.31;100.00;98877.09;4959716;28;20036;-96
2024/02/15 07:22:59;;;;;;;0.15;0.10;;;;;;;11.28;100.00;98873.00;4941502;28;20046;-95
2024/02/15 07:25:25;;;;;;;0.25;0.10;;;;;;;11.26;100.00;98875.03;4962985;28;20424;-96
2024/02/15 07:27:52;;;;;;;0.65;0.10;;;;;;;11.33;100.00;98872.44;4958614;28;20049;-96
2024/02/15 07:30:18;;;;;;;1.50;0.10;;;;;;;11.33;100.00;98875.91;4949942;28;20086;-96
2024/02/15 07:32:44;;;;;;;0.20;0.17;;;;;;;11.32;100.00;98878.72;4976654;28;20031;-96
2024/02/15 07:36:03;;;;;;;3.10;0.10;;;;;;;11.40;100.00;98870.69;4977261;28;20035;-96
2024/02/15 07:43:28;;;;;;;0.30;0.08;;;;;;;11.39;100.00;98880.44;4939909;28;20038;-96
2024/02/15 07:45:54;;;;;;;0.10;0.10;;;;;;;11.43;100.00;98885.34;4972949;28;20097;-96
2024/02/15 07:48:20;;;;;;;0.82;0.20;;;;;;;11.44;100.00;98885.16;4924573;28;20034;-96
2024/02/15 07:50:46;;;;;;;0.10;0.10;;;;;;;11.40;100.00;98886.56;4955580;28;20049;-95
2024/02/15 07:53:12;;;;;;;0.10;0.10;;;;;;;11.42;100.00;98897.75;4976891;28;20447;-96
2024/02/15 07:55:38;;;;;;;2.25;0.20;;;;;;;11.50;100.00;98899.44;4916054;28;20038;-96
2024/02/15 07:58:04;;;;;;;0.22;0.22;;;;;;;11.52;100.00;98903.56;4925973;28;20145;-96
2024/02/15 08:00:39;;;;;;;4.05;0.22;;;;;;;11.58;100.00;98904.63;4964314;28;20066;-96
2024/02/15 08:03:32;;;;;;;4.43;0.30;;;;;;;11.52;100.00;98900.91;4945557;28;20038;-96
2024/02/15 08:05:59;;;;;;;2.55;0.20;;;;;;;11.59;100.00;98908.09;4972016;28;20034;-96
2024/02/15 08:08:24;;;;;;;2.40;0.25;;;;;;;11.57;100.00;98900.34;4954673;28;20046;-96
2024/02/15 08:10:51;;;;;;;1.80;0.20;;;;;;;11.62;100.00;98907.72;4953843;28;20439;-96
2024/02/15 08:13:18;;;;;;;3.92;0.22;;;;;;;11.62;100.00;98907.72;4968569;28;20125;-96
2024/02/15 08:15:44;;;;;;;0.20;0.10;;;;;;;11.63;100.00;98907.53;4961435;28;20042;-96
2024/02/15 08:18:12;;;;;;;1.65;0.10;;;;;;;11.67;100.00;98915.91;4919450;28;20493;-84
2024/02/15 08:20:40;;;;;;;0.30;0.17;;;;;;;11.68;100.00;98912.25;4934196;28;20084;-96
2024/02/15 08:23:06;;;;;;;0.20;0.20;;;;;;;11.71;100.00;98922.47;4938403;28;20070;-96
2024/02/15 08:25:32;;;;;;;0.30;0.20;;;;;;;11.72;100.00;98920.66;4915345;28;20042;-96
2024/02/15 08:28:05;;;;;;;1.00;0.38;;;;;;;11.70;100.00;98923.47;4948696;28;20058;-96
2024/02/15 08:30:31;;;;;;;0.20;0.15;;;;;;;11.72;100.00;98926.72;4947324;29;20031;-96
2024/02/15 08:32:58;;;;;;;1.35;0.30;;;;;;;11.74;100.00;98930.03;4956112;28;20508;-96
2024/02/15 08:35:24;;;;;;;0.68;0.30;;;;;;;11.78;100.00;98935.75;4951157;28;20027;-96
2024/02/15 08:37:51;;;;;;;1.80;0.40;;;;;;;11.78;100.00;98939.22;4922367;28;20082;-96
2024/02/15 08:40:24;;;;;;;0.57;0.32;;;;;;;11.76;100.00;98929.84;4947625;28;20215;-96
2024/02/15 08:42:50;;;;;;;6.72;0.40;;;;;;;11.74;100.00;98930.03;4967133;28;20144;-96
2024/02/15 08:45:16;;;;;;;0.30;0.20;;;;;;;11.81;100.00;98938.03;4938487;28;20510;-96
2024/02/15 08:47:43;;;;;;;0.85;0.25;;;;;;;11.81;100.00;98934.56;4938221;28;20058;-96
2024/02/15 08:50:11;;;;;;;3.05;0.32;;;;;;;11.88;100.00;98936.25;4941314;28;20034;-96
2024/02/15 08:52:41;;;;;;;2.47;0.30;;;;;;;11.92;100.00;98944.63;4956353;28;20034;-96
2024/02/15 08:55:09;;;;;;;1.02;0.30;;;;;;;11.90;100.00;98950.13;4928215;28;20038;-96
2024/02/15 08:57:36;;;;;;;1.75;0.30;;;;;;;11.93;100.00;98956.84;4949172;28;20043;-96
2024/02/15 09:00:13;;;;;;;1.35;0.50;;;;;;;11.99;100.00;98963.25;4927310;29;20046;-95
2024/02/15 09:02:46;;;;;;;1.30;0.57;;;;;;;11.96;100.00;98969.72;4966154;28;20034;-96
2024/02/15 09:05:22;;;;;;;2.45;0.60;;;;;;;11.95;100.00;98978.69;4951206;28;20034;-96
2024/02/15 09:07:48;;;;;;;1.25;0.70;;;;;;;11.87;100.00;98978.81;4931030;28;20121;-96
2024/02/15 09:10:17;;;;;;;1.50;0.75;;;;;;;11.90;100.00;98973.13;4951926;28;20039;-96
2024/02/15 09:12:46;;;;;;;0.95;0.50;;;;;;;11.89;100.00;98982.09;4931672;29;20117;-96
2024/02/15 09:15:13;;;;;;;0.50;0.50;;;;;;;11.85;100.00;98980.84;4952692;28;20038;-96
2024/02/15 09:17:40;;;;;;;1.17;0.50;;;;;;;11.86;100.00;98985.13;4955040;28;20034;-96
2024/02/15 09:20:14;;;;;;;0.40;0.40;;;;;;;11.88;100.00;98980.47;4954202;28;20035;-96
2024/02/15 09:22:48;;;;;;;1.50;0.47;;;;;;;11.90;100.00;98973.13;4964427;28;20078;-96
2024/02/15 09:25:14;;;;;;;0.50;0.50;;;;;;;11.94;100.00;98981.50;4950450;28;20276;-96
2024/02/15 09:27:42;;;;;;;0.40;0.40;;;;;;;11.90;100.00;98986.38;4978396;28;20541;-96
2024/02/15 09:30:09;;;;;;;0.70;0.30;;;;;;;11.91;100.00;98996.75;4926967;28;20031;-96
2024/02/15 09:32:36;;;;;;;0.70;0.30;;;;;;;11.94;100.00;98992.09;4947411;28;20039;-96
2024/02/15 09:35:07;;;;;;;1.45;0.40;;;;;;;11.95;100.00;98997.22;4973486;28;20050;-96
2024/02/15 09:37:43;;;;;;;1.08;0.40;;;;;;;11.96;100.00;98990.91;4957202;28;20049;-96
2024/02/15 09:40:13;;;;;;;0.63;0.35;;;;;;;11.96;100.00;99001.50;4954945;28;20034;-96
2024/02/15 09:42:39;;;;;;;0.45;0.30;;;;;;;11.98;100.00;99004.78;4959361;28;20072;-96
2024/02/15 09:45:07;;;;;;;1.42;0.40;;;;;;;11.99;100.00;99000.31;4971984;28;20058;-96
2024/02/15 09:47:37;;;;;;;1.95;0.40;;;;;;;12.03;100.00;99010.34;4959748;28;20046;-96
2024/02/15 09:50:16;;;;;;;0.35;0.32;;;;;;;12.09;100.00;99015.91;4964448;28;20039;-96
2024/02/15 09:52:51;;;;;;;1.25;0.50;;;;;;;12.13;100.00;99019.81;4932963;29;20070;-96
2024/02/15 09:55:18;;;;;;;2.20;0.95;;;;;;;12.09;100.00;99022.00;4960053;28;20030;-96
2024/02/15 09:57:48;;;;;;;1.45;0.95;;;;;;;12.04;100.00;99022.56;4978073;28;20026;-96
2024/02/15 10:00:16;;;;;;;2.33;1.10;;;;;;;12.05;100.00;99018.09;4970366;28;20564;-96
2024/02/15 10:02:52;;;;;;;3.70;1.55;;;;;;;12.11;100.00;99027.13;4991857;28;20085;-96
2024/02/15 10:05:19;;;;;;;1.55;0.90;;;;;;;11.99;100.00;99035.53;4950163;28;20117;-95
2024/02/15 10:07:46;;;;;;;1.33;1.20;;;;;;;11.95;100.00;99031.63;4960732;28;20046;-96
2024/02/15 10:10:19;;;;;;;2.65;0.80;;;;;;;12.06;100.00;99046.19;4979531;28;20054;-96
2024/02/15 10:12:56;;;;;;;3.65;0.80;;;;;;;12.08;100.00;99041.56;4954407;28;20038;-96
2024/02/15 10:15:40;;;;;;;0.95;0.80;;;;;;;12.17;100.00;99039.59;4976885;28;20014;-96
2024/02/15 10:18:10;;;;;;;1.02;0.70;;;;;;;12.19;100.00;99039.41;4992807;28;20031;-96
2024/02/15 10:20:44;;;;;;;0.70;0.70;;;;;;;12.18;100.00;99040.44;4982433;28;20038;-96
2024/02/15 10:23:18;;;;;;;1.85;0.80;;;;;;;12.22;100.00;99047.81;4981076;28;20412;-96
2024/02/15 10:25:45;;;;;;;1.58;0.60;;;;;;;12.20;100.00;99041.88;4983531;28;20046;-97
2024/02/15 10:28:15;;;;;;;0.63;0.50;;;;;;;12.26;100.00;99043.75;4981095;28;20056;-96
2024/02/15 10:30:43;;;;;;;1.45;0.35;;;;;;;12.31;100.00;99050.34;4984202;28;20049;-96
2024/02/15 10:33:09;;;;;;;1.20;0.50;;;;;;;12.30;100.00;99053.97;4985695;28;20035;-96
2024/02/15 10:35:38;;;;;;;2.20;0.45;;;;;;;12.26;100.00;99049.06;4982931;28;20069;-94
2024/02/15 10:38:09;;;;;;;1.17;0.30;;;;;;;12.27;100.00;99058.66;4984641;28;20031;-96
2024/02/15 10:40:37;;;;;;;0.47;0.40;;;;;;;12.34;100.00;99061.34;4989418;28;20037;-96
2024/02/15 10:43:05;;;;;;;0.57;0.40;;;;;;;12.41;100.00;99058.78;4962077;28;20026;-96
2024/02/15 10:45:32;;;;;;;3.05;0.55;;;;;;;12.49;100.00;99061.28;4987372;28;20080;-96
2024/02/15 10:47:58;;;;;;;2.13;0.50;;;;;;;12.59;100.00;99063.63;4956913;28;20061;-96
2024/02/15 10:50:25;;;;;;;2.65;0.47;;;;;;;12.66;100.00;99058.38;4991905;28;20028;-96
2024/02/15 10:52:58;;;;;;;1.45;0.50;;;;;;;12.76;100.00;99058.03;4946211;28;20061;-96
2024/02/15 10:56:06;;;;;;;2.35;0.60;;;;;;;12.67;100.00;99051.22;4969441;28;20037;-96
2024/02/15 10:58:38;;;;;;;3.80;0.50;;;;;;;12.60;100.00;99053.81;4967893;28;20046;-96
2024/02/15 11:01:08;;;;;;;0.45;0.45;;;;;;;12.63;100.00;99061.38;4964147;28;20041;-96
2024/02/15 11:03:47;;;;;;;1.42;0.60;;;;;;;12.71;100.00;99057.81;4970895;28;20467;-96
2024/02/15 11:06:14;;;;;;;1.30;0.30;;;;;;;12.71;100.00;99052.50;4976867;28;20550;-96
2024/02/15 11:08:41;;;;;;;2.28;0.52;;;;;;;12.73;100.00;99061.88;4980321;28;20034;-96
2024/02/15 11:11:07;;;;;;;2.20;0.43;;;;;;;12.72;100.00;99065.56;4966705;28;20042;-96
2024/02/15 11:13:33;;;;;;;2.20;0.40;;;;;;;12.74;100.00;99073.31;4975430;28;20926;-96
2024/02/15 11:15:59;;;;;;;2.03;1.20;;;;;;;12.72;100.00;99073.50;4960200;28;20060;-96
2024/02/15 11:18:48;;;;;;;1.70;0.82;;;;;;;12.82;100.00;99062.53;4964425;28;20041;-96
2024/02/15 11:21:16;;;;;;;3.38;1.13;;;;;;;12.80;100.00;99061.13;4974394;28;20125;-96
2024/02/15 11:23:43;;;;;;;1.35;0.60;;;;;;;12.76;100.00;99058.03;4964496;28;20038;-96
2024/02/15 11:26:30;;;;;;;2.20;0.50;;;;;;;12.84;100.00;99065.00;4963805;28;20159;-96
2024/02/15 11:28:56;;;;;;;2.33;0.50;;;;;;;12.78;100.00;99062.13;4979790;28;20038;-96
2024/02/15 11:31:57;;;;;;;2.35;0.60;;;;;;;12.92;100.00;99066.69;4948157;28;20042;-96
2024/02/15 11:34:43;;;;;;;2.05;0.60;;;;;;;12.98;100.00;99074.69;4951039;28;20114;-96
2024/02/15 11:37:08;;;;;;;2.47;0.50;;;;;;;12.93;100.00;99078.97;4977499;28;20497;-96
2024/02/15 11:39:45;;;;;;;0.88;0.50;;;;;;;12.96;100.00;99079.41;4964700;28;20037;-95
2024/02/15 11:42:29;;;;;;;1.52;0.73;;;;;;;13.01;100.00;99074.31;4983630;28;20181;-96
2024/02/15 11:45:07;;;;;;;1.20;0.50;;;;;;;13.10;100.00;99085.59;4976661;28;20054;-96
2024/02/15 11:47:39;;;;;;;1.73;0.60;;;;;;;13.12;100.00;99088.06;4985564;28;20088;-96
2024/02/15 11:50:12;;;;;;;2.33;0.88;;;;;;;13.14;100.00;99088.66;4996305;28;20042;-96
2024/02/15 11:52:40;;;;;;;2.25;0.80;;;;;;;13.09;100.00;99069.88;4971236;28;20030;-96
2024/02/15 11:55:09;;;;;;;1.77;0.68;;;;;;;13.02;100.00;99064.53;5029573;23;20464;-94
2024/02/15 11:57:47;;;;;;;1.83;0.63;;;;;;;13.03;100.00;99063.50;4977899;28;20041;-94
2024/02/15 12:19:55;;;;;;;6.70;0.93;;;;;;;12.88;100.00;99060.97;4965247;28;20055;-95
2024/02/15 12:22:28;;;;;;;4.03;0.60;;;;;;;12.92;100.00;99064.88;4971343;28;20029;-95
2024/02/15 12:25:05;;;;;;;7.82;1.05;;;;;;;12.98;100.00;99060.63;4980893;28;20138;-95
2024/02/15 12:27:34;;;;;;;5.43;1.15;;;;;;;12.97;100.00;99051.03;4957201;28;20038;-94
2024/02/15 12:30:00;;;;;;;3.83;0.70;;;;;;;13.07;100.00;99046.19;4955463;28;20083;-95
2024/02/15 12:32:27;;;;;;;2.38;0.50;;;;;;;13.22;100.00;99056.66;4952873;28;20027;-95
2024/02/15 12:35:16;;;;;;;7.38;0.80;;;;;;;13.37;100.00;99069.00;4934243;28;20129;-94